sensor_id;sensor_type;location;lat;lon;timestamp;pressure;altitude;pressure_sealevel;temperature;humidity
48352;BME280;34163;49.314;6.752;2023-09-30T05:21:25;100620.81;;;7.82;100.00
48352;BME280;34163;49.314;6.752;2023-09-30T05:23:50;100613.75;;;7.84;100.00
48352;BME280;34163;49.314;6.752;2023-09-30T05:26:15;100619.91;;;7.83;100.00
48352;BME280;34163;49.314;6.752;2023-09-30T05:28:41;100624.25;;;7.86;100.00
48352;BME280;34163;49.314;6.752;2023-09-30T05:31:07;100628.66;;;7.87;100.00
48352;BME280;34163;49.314;6.752;2023-09-30T05:33:33;100637.47;;;7.84;100.00
48352;BME280;34163;49.314;6.752;2023-09-30T05:35:58;100634.94;;;7.79;100.00
48352;BME280;34163;49.314;6.752;2023-09-30T05:38:24;100633.13;;;7.81;100.00
48352;BME280;34163;49.314;6.752;2023-09-30T05:40:51;100642.72;;;7.86;100.00
48352;BME280;34163;49.314;6.752;2023-09-30T05:43:16;100655.97;;;7.84;100.00
48352;BME280;34163;49.314;6.752;2023-09-30T05:45:42;100663.78;;;7.89;100.00
48352;BME280;34163;49.314;6.752;2023-09-30T05:48:14;100662.84;;;7.91;100.00
48352;BME280;34163;49.314;6.752;2023-09-30T05:50:39;100656.78;;;7.86;100.00
48352;BME280;34163;49.314;6.752;2023-09-30T05:53:05;100663.84;;;7.86;100.00
48352;BME280;34163;49.314;6.752;2023-09-30T05:55:30;100658.53;;;7.87;100.00
48352;BME280;34163;49.314;6.752;2023-09-30T05:57:55;100663.88;;;7.84;100.00
48352;BME280;34163;49.314;6.752;2023-09-30T06:00:21;100658.56;;;7.86;100.00
48352;BME280;34163;49.314;6.752;2023-09-30T06:02:56;100662.09;;;7.85;100.00
48352;BME280;34163;49.314;6.752;2023-09-30T06:05:21;100649.78;;;7.85;100.00
48352;BME280;34163;49.314;6.752;2023-09-30T06:07:51;100652.50;;;7.80;100.00
48352;BME280;34163;49.314;6.752;2023-09-30T06:10:19;100660.38;;;7.84;100.00
48352;BME280;34163;49.314;6.752;2023-09-30T06:12:45;100658.53;;;7.87;100.00
48352;BME280;34163;49.314;6.752;2023-09-30T06:15:11;100654.16;;;7.86;100.00
48352;BME280;34163;49.314;6.752;2023-09-30T06:17:38;100668.22;;;7.88;100.00
48352;BME280;34163;49.314;6.752;2023-09-30T06:20:06;100667.28;;;7.89;100.00
48352;BME280;34163;49.314;6.752;2023-09-30T06:22:34;100677.00;;;7.87;100.00
48352;BME280;34163;49.314;6.752;2023-09-30T06:24:59;100661.94;;;7.94;100.00
48352;BME280;34163;49.314;6.752;2023-09-30T06:27:24;100667.28;;;7.89;100.00
48352;BME280;34163;49.314;6.752;2023-09-30T06:29:50;100676.09;;;7.90;100.00
48352;BME280;34163;49.314;6.752;2023-09-30T06:32:15;100673.50;;;7.87;100.00
48352;BME280;34163;49.314;6.752;2023-09-30T06:34:40;100677.06;;;7.84;100.00
48352;BME280;34163;49.314;6.752;2023-09-30T06:37:06;100675.22;;;7.89;100.00
48352;BME280;34163;49.314;6.752;2023-09-30T06:39:31;100670.94;;;7.84;100.00
48352;BME280;34163;49.314;6.752;2023-09-30T06:41:56;100678.84;;;7.84;100.00
48352;BME280;34163;49.314;6.752;2023-09-30T06:44:21;100686.69;;;7.88;100.00
48352;BME280;34163;49.314;6.752;2023-09-30T06:46:49;100678.84;;;7.84;100.00
48352;BME280;34163;49.314;6.752;2023-09-30T06:49:15;100673.59;;;7.82;100.00
48352;BME280;34163;49.314;6.752;2023-09-30T06:51:41;100674.44;;;7.82;100.00
48352;BME280;34163;49.314;6.752;2023-09-30T06:54:06;100669.13;;;7.86;100.00
48352;BME280;34163;49.314;6.752;2023-09-30T06:56:31;100667.31;;;7.88;100.00
48352;BME280;34163;49.314;6.752;2023-09-30T06:58:57;100671.78;;;7.84;100.00
48352;BME280;34163;49.314;6.752;2023-09-30T07:01:23;100663.00;;;7.84;100.00
48352;BME280;34163;49.314;6.752;2023-09-30T07:03:48;100669.22;;;7.79;100.00
48352;BME280;34163;49.314;6.752;2023-09-30T07:06:21;100668.28;;;7.84;100.00
48352;BME280;34163;49.314;6.752;2023-09-30T07:35:46;100713.22;;;7.79;100.00
48352;BME280;34163;49.314;6.752;2023-09-30T07:38:12;100715.88;;;7.77;100.00
48352;BME280;34163;49.314;6.752;2023-09-30T07:40:37;100714.09;;;7.78;100.00
48352;BME280;34163;49.314;6.752;2023-09-30T07:43:02;100713.25;;;7.77;100.00
48352;BME280;34163;49.314;6.752;2023-09-30T07:45:27;100697.38;;;7.80;100.00
48352;BME280;34163;49.314;6.752;2023-09-30T07:47:53;100692.03;;;7.84;100.00
48352;BME280;34163;49.314;6.752;2023-09-30T07:50:18;100691.13;;;7.85;100.00
48352;BME280;34163;49.314;6.752;2023-09-30T07:52:44;100699.09;;;7.81;100.00
48352;BME280;34163;49.314;6.752;2023-09-30T07:55:09;100688.47;;;7.85;100.00
48352;BME280;34163;49.314;6.752;2023-09-30T07:57:35;100685.00;;;7.82;100.00
48352;BME280;34163;49.314;6.752;2023-09-30T08:00:01;100688.47;;;7.85;100.00
48352;BME280;34163;49.314;6.752;2023-09-30T08:02:30;100683.19;;;7.85;100.00
48352;BME280;34163;49.314;6.752;2023-09-30T08:04:58;100684.94;;;7.86;100.00
48352;BME280;34163;49.314;6.752;2023-09-30T08:07:24;100691.13;;;7.85;100.00
48352;BME280;34163;49.314;6.752;2023-09-30T08:09:50;100694.66;;;7.85;100.00
48352;BME280;34163;49.314;6.752;2023-09-30T08:12:15;100704.28;;;7.86;100.00
48352;BME280;34163;49.314;6.752;2023-09-30T08:14:40;100692.03;;;7.84;100.00
48352;BME280;34163;49.314;6.752;2023-09-30T08:17:05;100693.75;;;7.85;100.00
48352;BME280;34163;49.314;6.752;2023-09-30T08:19:31;100689.41;;;7.82;100.00
48352;BME280;34163;49.314;6.752;2023-09-30T08:21:56;100690.28;;;7.82;100.00
48352;BME280;34163;49.314;6.752;2023-09-30T08:24:22;100700.84;;;7.82;100.00
48352;BME280;34163;49.314;6.752;2023-09-30T08:26:47;100693.78;;;7.83;100.00
48352;BME280;34163;49.314;6.752;2023-09-30T08:29:12;100692.09;;;7.80;100.00
48352;BME280;34163;49.314;6.752;2023-09-30T08:31:37;100698.19;;;7.82;100.00
48352;BME280;34163;49.314;6.752;2023-09-30T08:34:03;100697.38;;;7.80;100.00
48352;BME280;34163;49.314;6.752;2023-09-30T08:36:29;100699.03;;;7.85;100.00
48352;BME280;34163;49.314;6.752;2023-09-30T08:38:55;100705.19;;;7.87;100.00
48352;BME280;34163;49.314;6.752;2023-09-30T08:41:32;100704.25;;;7.88;100.00
48352;BME280;34163;49.314;6.752;2023-09-30T08:44:01;100711.31;;;7.87;100.00
48352;BME280;34163;49.314;6.752;2023-09-30T08:46:30;100732.44;;;7.87;100.00
48352;BME280;34163;49.314;6.752;2023-09-30T08:48:57;100723.59;;;7.90;100.00
48352;BME280;34163;49.314;6.752;2023-09-30T08:51:23;100727.13;;;7.89;100.00
48352;BME280;34163;49.314;6.752;2023-09-30T08:53:48;100714.78;;;7.89;100.00
48352;BME280;34163;49.314;6.752;2023-09-30T08:56:15;100713.97;;;7.87;100.00
48352;BME280;34163;49.314;6.752;2023-09-30T08:58:41;100723.59;;;7.90;100.00
48352;BME280;34163;49.314;6.752;2023-09-30T09:01:07;100720.97;;;7.90;100.00
48352;BME280;34163;49.314;6.752;2023-09-30T09:03:34;100734.16;;;7.90;100.00
48352;BME280;34163;49.314;6.752;2023-09-30T09:06:01;100721.84;;;7.89;100.00
48352;BME280;34163;49.314;6.752;2023-09-30T09:08:27;100719.19;;;7.90;100.00
48352;BME280;34163;49.314;6.752;2023-09-30T09:13:24;100709.50;;;7.91;100.00
48352;BME280;34163;49.314;6.752;2023-09-30T09:15:49;100697.22;;;7.90;100.00
48352;BME280;34163;49.314;6.752;2023-09-30T09:18:31;100691.97;;;7.87;100.00
48352;BME280;34163;49.314;6.752;2023-09-30T09:21:07;100698.97;;;7.88;100.00
48352;BME280;34163;49.314;6.752;2023-09-30T09:23:36;100691.06;;;7.88;100.00
48352;BME280;34163;49.314;6.752;2023-09-30T09:26:03;100701.63;;;7.88;100.00
48352;BME280;34163;49.314;6.752;2023-09-30T09:28:34;100693.66;;;7.91;100.00
48352;BME280;34163;49.314;6.752;2023-09-30T09:31:00;100694.56;;;7.90;100.00
48352;BME280;34163;49.314;6.752;2023-09-30T09:33:34;100691.03;;;7.89;100.00
48352;BME280;34163;49.314;6.752;2023-09-30T09:35:59;100697.25;;;7.88;100.00
48352;BME280;34163;49.314;6.752;2023-09-30T09:38:25;100689.28;;;7.90;100.00
48352;BME280;34163;49.314;6.752;2023-09-30T09:40:50;100698.06;;;7.90;100.00
48352;BME280;34163;49.314;6.752;2023-09-30T09:43:15;100697.16;;;7.91;100.00
48352;BME280;34163;49.314;6.752;2023-09-30T09:45:41;100702.50;;;7.90;100.00
48352;BME280;34163;49.314;6.752;2023-09-30T09:48:08;100701.53;;;7.92;100.00
48352;BME280;34163;49.314;6.752;2023-09-30T09:50:34;100694.50;;;7.91;100.00
48352;BME280;34163;49.314;6.752;2023-09-30T09:53:01;100698.00;;;7.95;100.00
48352;BME280;34163;49.314;6.752;2023-09-30T09:55:27;100703.22;;;7.98;100.00
48352;BME280;34163;49.314;6.752;2023-09-30T09:57:53;100696.25;;;7.94;100.00
48352;BME280;34163;49.314;6.752;2023-09-30T10:00:20;100689.16;;;7.96;100.00
48352;BME280;34163;49.314;6.752;2023-09-30T10:02:46;100685.69;;;7.94;100.00
48352;BME280;34163;49.314;6.752;2023-09-30T10:05:11;100692.72;;;7.95;100.00
48352;BME280;34163;49.314;6.752;2023-09-30T10:07:38;100681.28;;;7.93;100.00
48352;BME280;34163;49.314;6.752;2023-09-30T10:10:06;100669.03;;;7.92;100.00
48352;BME280;34163;49.314;6.752;2023-09-30T10:12:39;100660.28;;;7.90;100.00
48352;BME280;34163;49.314;6.752;2023-09-30T10:20:29;100663.75;;;7.92;100.00
48352;BME280;34163;49.314;6.752;2023-09-30T10:25:39;100654.84;;;7.96;100.00
48352;BME280;34163;49.314;6.752;2023-09-30T10:33:35;100661.06;;;7.93;100.00
48352;BME280;34163;49.314;6.752;2023-09-30T10:36:01;100654.88;;;7.94;100.00
48352;BME280;34163;49.314;6.752;2023-09-30T10:41:00;100652.13;;;8.00;100.00
48352;BME280;34163;49.314;6.752;2023-09-30T10:43:37;100651.31;;;7.97;100.00
48352;BME280;34163;49.314;6.752;2023-09-30T10:46:03;100653.09;;;7.96;100.00
48352;BME280;34163;49.314;6.752;2023-09-30T10:48:32;100647.78;;;7.99;100.00
48352;BME280;34163;49.314;6.752;2023-09-30T10:51:00;100650.47;;;7.96;100.00
48352;BME280;34163;49.314;6.752;2023-09-30T10:53:26;100650.44;;;7.98;100.00
48352;BME280;34163;49.314;6.752;2023-09-30T10:55:56;100653.03;;;8.01;100.00
48352;BME280;34163;49.314;6.752;2023-09-30T10:58:38;100653.06;;;7.98;100.00
48352;BME280;34163;49.314;6.752;2023-09-30T11:01:03;100647.75;;;8.01;100.00
48352;BME280;34163;49.314;6.752;2023-09-30T11:03:29;100646.00;;;8.00;100.00
48352;BME280;34163;49.314;6.752;2023-09-30T11:05:55;100644.25;;;7.99;100.00
48352;BME280;34163;49.314;6.752;2023-09-30T11:08:21;100640.66;;;8.03;100.00
48352;BME280;34163;49.314;6.752;2023-09-30T11:10:48;100645.94;;;8.03;100.00
48352;BME280;34163;49.314;6.752;2023-09-30T11:13:13;100649.50;;;8.00;100.00
48352;BME280;34163;49.314;6.752;2023-09-30T11:15:40;100655.59;;;8.04;100.00
48352;BME280;34163;49.314;6.752;2023-09-30T11:18:15;100653.03;;;8.01;100.00
48352;BME280;34163;49.314;6.752;2023-09-30T11:20:41;100658.28;;;8.03;100.00
48352;BME280;34163;49.314;6.752;2023-09-30T11:23:07;100660.88;;;8.04;100.00
48352;BME280;34163;49.314;6.752;2023-09-30T11:25:36;100662.63;;;8.04;100.00
48352;BME280;34163;49.314;6.752;2023-09-30T11:28:12;100660.88;;;8.04;100.00
48352;BME280;34163;49.314;6.752;2023-09-30T11:30:52;100656.50;;;8.03;100.00
48352;BME280;34163;49.314;6.752;2023-09-30T11:33:17;100661.81;;;8.00;100.00
48352;BME280;34163;49.314;6.752;2023-09-30T11:35:54;100648.63;;;8.00;100.00
48352;BME280;34163;49.314;6.752;2023-09-30T11:38:20;100651.22;;;8.03;100.00
48352;BME280;34163;49.314;6.752;2023-09-30T11:41:03;100656.50;;;8.03;100.00
48352;BME280;34163;49.314;6.752;2023-09-30T11:43:30;100651.16;;;8.06;100.00
48352;BME280;34163;49.314;6.752;2023-09-30T11:48:34;100650.25;;;8.07;100.00
48352;BME280;34163;49.314;6.752;2023-09-30T11:51:00;100643.25;;;8.06;100.00
48352;BME280;34163;49.314;6.752;2023-09-30T11:53:28;100645.38;;;9.15;100.00
48352;BME280;34163;49.314;6.752;2023-09-30T11:55:53;100644.47;;;8.33;100.00
48352;BME280;34163;49.314;6.752;2023-09-30T11:58:22;100642.03;;;8.23;100.00
48352;BME280;34163;49.314;6.752;2023-09-30T12:00:48;100643.94;;;8.16;100.00
48352;BME280;34163;49.314;6.752;2023-09-30T12:03:16;100642.22;;;8.13;100.00
48352;BME280;34163;49.314;6.752;2023-09-30T12:05:41;100628.13;;;8.14;100.00
48352;BME280;34163;49.314;6.752;2023-09-30T12:08:06;100636.91;;;8.15;100.00
48352;BME280;34163;49.314;6.752;2023-09-30T12:10:32;100638.69;;;8.14;100.00
48352;BME280;34163;49.314;6.752;2023-09-30T12:12:57;100633.38;;;8.16;100.00
48352;BME280;34163;49.314;6.752;2023-09-30T12:15:22;100641.31;;;8.14;100.00
48352;BME280;34163;49.314;6.752;2023-09-30T12:17:47;100639.50;;;8.16;100.00
48352;BME280;34163;49.314;6.752;2023-09-30T12:20:13;100639.50;;;8.16;100.00
48352;BME280;34163;49.314;6.752;2023-09-30T12:22:40;100638.59;;;8.19;100.00
48352;BME280;34163;49.314;6.752;2023-09-30T12:25:06;100637.75;;;8.17;100.00
48352;BME280;34163;49.314;6.752;2023-09-30T12:27:33;100627.25;;;8.14;100.00
48352;BME280;34163;49.314;6.752;2023-09-30T12:29:58;100630.00;;;8.09;100.00
48352;BME280;34163;49.314;6.752;2023-09-30T12:32:24;100629.00;;;8.13;100.00
48352;BME280;34163;49.314;6.752;2023-09-30T12:34:50;100622.97;;;8.08;100.00
48352;BME280;34163;49.314;6.752;2023-09-30T12:37:16;100630.91;;;8.07;100.00
48352;BME280;34163;49.314;6.752;2023-09-30T12:39:41;100630.03;;;8.06;100.00
48352;BME280;34163;49.314;6.752;2023-09-30T12:42:07;100628.22;;;8.08;100.00
48352;BME280;34163;49.314;6.752;2023-09-30T12:44:35;100618.59;;;8.06;100.00
48352;BME280;34163;49.314;6.752;2023-09-30T12:47:00;100624.72;;;8.09;100.00
48352;BME280;34163;49.314;6.752;2023-09-30T12:49:26;100623.00;;;8.05;100.00
48352;BME280;34163;49.314;6.752;2023-09-30T12:51:51;100621.19;;;8.07;100.00
48352;BME280;34163;49.314;6.752;2023-09-30T12:54:16;100618.53;;;8.09;100.00
48352;BME280;34163;49.314;6.752;2023-09-30T12:56:43;100626.47;;;8.09;100.00
48352;BME280;34163;49.314;6.752;2023-09-30T12:59:08;100618.47;;;8.12;100.00
48352;BME280;34163;49.314;6.752;2023-09-30T13:01:34;100613.19;;;8.12;100.00
48352;BME280;34163;49.314;6.752;2023-09-30T13:03:59;100605.38;;;8.07;100.00
48352;BME280;34163;49.314;6.752;2023-09-30T13:06:24;100596.63;;;8.05;100.00
48352;BME280;34163;49.314;6.752;2023-09-30T13:08:49;100591.34;;;8.05;100.00
48352;BME280;34163;49.314;6.752;2023-09-30T13:11:15;100591.38;;;8.04;100.00
48352;BME280;34163;49.314;6.752;2023-09-30T13:13:40;100589.63;;;8.04;100.00
48352;BME280;34163;49.314;6.752;2023-09-30T13:16:05;100584.34;;;8.04;100.00
48352;BME280;34163;49.314;6.752;2023-09-30T13:18:32;100586.03;;;8.07;100.00
48352;BME280;34163;49.314;6.752;2023-09-30T13:20:58;100585.19;;;8.06;100.00
48352;BME280;34163;49.314;6.752;2023-09-30T13:23:24;100575.50;;;8.05;100.00
48352;BME280;34163;49.314;6.752;2023-09-30T13:25:49;100574.59;;;8.08;100.00
48352;BME280;34163;49.314;6.752;2023-09-30T13:28:15;100566.69;;;8.06;100.00
48352;BME280;34163;49.314;6.752;2023-09-30T13:30:40;100568.41;;;8.07;100.00
48352;BME280;34163;49.314;6.752;2023-09-30T13:33:05;100567.47;;;8.11;100.00
48352;BME280;34163;49.314;6.752;2023-09-30T13:35:31;100567.44;;;8.13;100.00
48352;BME280;34163;49.314;6.752;2023-09-30T13:37:56;100578.91;;;8.10;100.00
48352;BME280;34163;49.314;6.752;2023-09-30T13:40:22;100570.09;;;8.11;100.00
48352;BME280;34163;49.314;6.752;2023-09-30T13:42:47;100571.91;;;8.09;100.00
48352;BME280;34163;49.314;6.752;2023-09-30T13:45:12;100563.06;;;8.10;100.00
48352;BME280;34163;49.314;6.752;2023-09-30T13:47:37;100565.78;;;8.07;100.00
48352;BME280;34163;49.314;6.752;2023-09-30T13:50:03;100571.03;;;8.09;100.00
48352;BME280;34163;49.314;6.752;2023-09-30T13:52:29;100564.81;;;8.11;100.00
48352;BME280;34163;49.314;6.752;2023-09-30T13:54:54;100563.91;;;8.14;100.00
48352;BME280;34163;49.314;6.752;2023-09-30T13:57:20;100552.47;;;8.13;100.00
48352;BME280;34163;49.314;6.752;2023-09-30T13:59:46;100549.88;;;8.10;100.00
48352;BME280;34163;49.314;6.752;2023-09-30T14:02:11;100552.47;;;8.13;100.00
48352;BME280;34163;49.314;6.752;2023-09-30T14:04:37;100550.75;;;8.12;100.00
48352;BME280;34163;49.314;6.752;2023-09-30T14:07:03;100550.03;;;8.04;100.00
48352;BME280;34163;49.314;6.752;2023-09-30T14:09:28;100554.31;;;8.08;100.00
48352;BME280;34163;49.314;6.752;2023-09-30T14:11:53;100549.97;;;8.06;100.00
48352;BME280;34163;49.314;6.752;2023-09-30T14:14:19;100558.75;;;8.08;100.00
48352;BME280;34163;49.314;6.752;2023-09-30T14:16:45;100561.41;;;8.06;100.00
48352;BME280;34163;49.314;6.752;2023-09-30T14:19:10;100557.00;;;8.07;100.00
48352;BME280;34163;49.314;6.752;2023-09-30T14:21:38;100559.59;;;8.08;100.00
48352;BME280;34163;49.314;6.752;2023-09-30T14:24:04;100559.53;;;8.11;100.00
48352;BME280;34163;49.314;6.752;2023-09-30T14:26:29;100555.25;;;8.06;100.00
48352;BME280;34163;49.314;6.752;2023-09-30T14:28:54;100544.78;;;8.03;100.00
48352;BME280;34163;49.314;6.752;2023-09-30T14:31:20;100545.63;;;8.05;100.00
48352;BME280;34163;49.314;6.752;2023-09-30T14:33:46;100543.88;;;8.02;100.00
48352;BME280;34163;49.314;6.752;2023-09-30T14:36:11;100544.69;;;8.06;100.00
48352;BME280;34163;49.314;6.752;2023-09-30T14:38:36;100545.63;;;8.03;100.00
48352;BME280;34163;49.314;6.752;2023-09-30T14:41:06;100534.22;;;8.03;100.00
48352;BME280;34163;49.314;6.752;2023-09-30T14:43:31;100535.09;;;8.03;100.00
48352;BME280;34163;49.314;6.752;2023-09-30T14:45:56;100537.75;;;8.02;100.00
48352;BME280;34163;49.314;6.752;2023-09-30T14:48:21;100529.00;;;7.99;100.00
48352;BME280;34163;49.314;6.752;2023-09-30T14:50:47;100542.13;;;8.04;100.00
48352;BME280;34163;49.314;6.752;2023-09-30T14:53:13;100540.38;;;8.03;100.00
48352;BME280;34163;49.314;6.752;2023-09-30T14:55:38;100538.63;;;8.00;100.00
48352;BME280;34163;49.314;6.752;2023-09-30T14:58:03;100534.25;;;8.01;100.00
48352;BME280;34163;49.314;6.752;2023-09-30T15:00:29;100533.41;;;7.99;100.00
48352;BME280;34163;49.314;6.752;2023-09-30T15:02:54;100534.13;;;8.06;100.00
48352;BME280;34163;49.314;6.752;2023-09-30T15:05:19;100536.84;;;8.04;100.00
48352;BME280;34163;49.314;6.752;2023-09-30T15:07:45;100536.88;;;8.03;100.00
48352;BME280;34163;49.314;6.752;2023-09-30T15:10:10;100533.28;;;8.05;100.00
48352;BME280;34163;49.314;6.752;2023-09-30T15:12:36;100542.97;;;8.05;100.00
48352;BME280;34163;49.314;6.752;2023-09-30T15:15:01;100538.56;;;8.05;100.00
48352;BME280;34163;49.314;6.752;2023-09-30T15:17:26;100533.22;;;8.08;100.00
48352;BME280;34163;49.314;6.752;2023-09-30T15:19:52;100537.59;;;8.09;100.00
48352;BME280;34163;49.314;6.752;2023-09-30T15:22:17;100528.75;;;8.10;100.00
48352;BME280;34163;49.314;6.752;2023-09-30T15:24:43;100530.56;;;8.08;100.00
48352;BME280;34163;49.314;6.752;2023-09-30T15:27:08;100528.81;;;8.07;100.00
48352;BME280;34163;49.314;6.752;2023-09-30T15:29:33;100527.97;;;8.07;100.00
48352;BME280;34163;49.314;6.752;2023-09-30T15:31:58;100522.66;;;8.08;100.00
48352;BME280;34163;49.314;6.752;2023-09-30T15:34:23;100527.09;;;8.06;100.00
48352;BME280;34163;49.314;6.752;2023-09-30T15:36:49;100527.06;;;8.08;100.00
48352;BME280;34163;49.314;6.752;2023-09-30T15:39:14;100525.28;;;8.08;100.00
48352;BME280;34163;49.314;6.752;2023-09-30T15:41:39;100520.03;;;8.07;100.00
48352;BME280;34163;49.314;6.752;2023-09-30T15:44:04;100526.16;;;8.09;100.00
48352;BME280;34163;49.314;6.752;2023-09-30T15:46:30;100518.25;;;8.07;100.00
48352;BME280;34163;49.314;6.752;2023-09-30T15:48:56;100521.91;;;8.02;100.00
48352;BME280;34163;49.314;6.752;2023-09-30T15:51:21;100518.41;;;8.01;100.00
48352;BME280;34163;49.314;6.752;2023-09-30T15:53:46;100513.00;;;8.06;100.00
48352;BME280;34163;49.314;6.752;2023-09-30T15:56:12;100506.81;;;8.08;100.00
48352;BME280;34163;49.314;6.752;2023-09-30T15:58:37;100505.06;;;8.07;100.00
48352;BME280;34163;49.314;6.752;2023-09-30T16:01:02;100503.31;;;8.08;100.00
48352;BME280;34163;49.314;6.752;2023-09-30T16:03:27;100503.34;;;8.06;100.00
48352;BME280;34163;49.314;6.752;2023-09-30T16:05:53;100497.25;;;8.04;100.00
48352;BME280;34163;49.314;6.752;2023-09-30T16:08:18;100506.00;;;8.06;100.00
48352;BME280;34163;49.314;6.752;2023-09-30T16:10:44;100499.00;;;8.04;100.00
48352;BME280;34163;49.314;6.752;2023-09-30T16:13:09;100506.06;;;8.03;100.00
48352;BME280;34163;49.314;6.752;2023-09-30T16:15:38;100503.34;;;8.06;100.00
48352;BME280;34163;49.314;6.752;2023-09-30T16:18:04;100501.53;;;8.08;100.00
48352;BME280;34163;49.314;6.752;2023-09-30T16:20:29;100498.06;;;8.06;100.00
48352;BME280;34163;49.314;6.752;2023-09-30T16:22:55;100496.34;;;8.04;100.00
48352;BME280;34163;49.314;6.752;2023-09-30T16:25:20;100491.91;;;8.06;100.00
48352;BME280;34163;49.314;6.752;2023-09-30T16:27:47;100495.41;;;8.08;100.00
48352;BME280;34163;49.314;6.752;2023-09-30T16:30:13;100496.28;;;8.07;100.00
48352;BME280;34163;49.314;6.752;2023-09-30T16:32:39;100498.94;;;8.07;100.00
48352;BME280;34163;49.314;6.752;2023-09-30T16:35:05;100496.25;;;8.08;100.00
48352;BME280;34163;49.314;6.752;2023-09-30T16:37:32;100497.94;;;8.12;100.00
48352;BME280;34163;49.314;6.752;2023-09-30T16:39:57;100500.63;;;8.11;100.00
48352;BME280;34163;49.314;6.752;2023-09-30T16:42:22;100504.19;;;8.08;100.00
48352;BME280;34163;49.314;6.752;2023-09-30T16:44:48;100503.28;;;8.09;100.00
48352;BME280;34163;49.314;6.752;2023-09-30T16:47:15;100509.47;;;8.08;100.00
48352;BME280;34163;49.314;6.752;2023-09-30T16:49:40;100514.69;;;8.11;100.00
48352;BME280;34163;49.314;6.752;2023-09-30T16:52:05;100522.66;;;8.08;100.00
48352;BME280;34163;49.314;6.752;2023-09-30T16:54:32;100527.00;;;8.11;100.00
48352;BME280;34163;49.314;6.752;2023-09-30T16:56:57;100521.75;;;8.09;100.00
48352;BME280;34163;49.314;6.752;2023-09-30T16:59:23;100519.06;;;8.12;100.00
48352;BME280;34163;49.314;6.752;2023-09-30T17:01:49;100519.06;;;8.12;100.00
48352;BME280;34163;49.314;6.752;2023-09-30T17:04:14;100529.63;;;8.12;100.00
48352;BME280;34163;49.314;6.752;2023-09-30T17:06:40;100533.22;;;8.08;100.00
48352;BME280;34163;49.314;6.752;2023-09-30T17:09:06;100529.69;;;8.09;100.00
48352;BME280;34163;49.314;6.752;2023-09-30T17:11:31;100535.00;;;8.08;100.00
48352;BME280;34163;49.314;6.752;2023-09-30T17:13:56;100536.75;;;8.07;100.00
48352;BME280;34163;49.314;6.752;2023-09-30T17:16:22;100535.88;;;8.07;100.00
48352;BME280;34163;49.314;6.752;2023-09-30T17:18:49;100541.97;;;8.10;100.00
48352;BME280;34163;49.314;6.752;2023-09-30T17:21:15;100547.25;;;8.10;100.00
48352;BME280;34163;49.314;6.752;2023-09-30T17:23:41;100543.69;;;8.13;100.00
48352;BME280;34163;49.314;6.752;2023-09-30T17:26:06;100544.53;;;8.13;100.00
48352;BME280;34163;49.314;6.752;2023-09-30T17:28:32;100551.63;;;8.11;100.00
48352;BME280;34163;49.314;6.752;2023-09-30T17:31:04;100549.00;;;8.11;100.00
48352;BME280;34163;49.314;6.752;2023-09-30T17:33:30;100548.19;;;8.08;100.00
48352;BME280;34163;49.314;6.752;2023-09-30T17:35:59;100541.13;;;8.08;100.00
48352;BME280;34163;49.314;6.752;2023-09-30T17:38:25;100536.66;;;8.12;100.00
48352;BME280;34163;49.314;6.752;2023-09-30T17:40:50;100543.72;;;8.11;100.00
48352;BME280;34163;49.314;6.752;2023-09-30T17:43:15;100548.22;;;8.06;100.00
48352;BME280;34163;49.314;6.752;2023-09-30T17:45:41;100549.06;;;8.08;100.00
48352;BME280;34163;49.314;6.752;2023-09-30T17:48:06;100552.50;;;8.12;100.00
48352;BME280;34163;49.314;6.752;2023-09-30T17:50:34;100560.34;;;8.15;100.00
48352;BME280;34163;49.314;6.752;2023-09-30T17:52:59;100558.69;;;8.11;100.00
48352;BME280;34163;49.314;6.752;2023-09-30T17:55:24;100564.78;;;8.13;100.00
48352;BME280;34163;49.314;6.752;2023-09-30T17:57:50;100560.31;;;8.16;100.00
48352;BME280;34163;49.314;6.752;2023-09-30T18:00:15;100563.84;;;8.17;100.00
48352;BME280;34163;49.314;6.752;2023-09-30T18:02:41;100570.88;;;8.16;100.00
48352;BME280;34163;49.314;6.752;2023-09-30T18:05:07;100575.25;;;8.17;100.00
48352;BME280;34163;49.314;6.752;2023-09-30T18:07:33;100581.41;;;8.18;100.00
48352;BME280;34163;49.314;6.752;2023-09-30T18:09:58;100579.63;;;8.20;100.00
48352;BME280;34163;49.314;6.752;2023-09-30T18:12:26;100580.50;;;8.19;100.00
48352;BME280;34163;49.314;6.752;2023-09-30T18:14:51;100584.00;;;8.19;100.00
48352;BME280;34163;49.314;6.752;2023-09-30T18:17:16;100584.03;;;8.18;100.00
48352;BME280;34163;49.314;6.752;2023-09-30T18:19:43;100579.81;;;8.53;100.00
48352;BME280;34163;49.314;6.752;2023-09-30T18:22:08;100584.13;;;8.59;100.00
48352;BME280;34163;49.314;6.752;2023-09-30T18:24:34;100590.59;;;8.42;100.00
48352;BME280;34163;49.314;6.752;2023-09-30T18:26:59;100589.00;;;8.35;100.00
48352;BME280;34163;49.314;6.752;2023-09-30T18:29:24;100586.44;;;8.30;100.00
48352;BME280;34163;49.314;6.752;2023-09-30T18:31:50;100575.91;;;8.29;100.00
48352;BME280;34163;49.314;6.752;2023-09-30T18:34:15;100569.75;;;8.30;100.00
48352;BME280;34163;49.314;6.752;2023-09-30T18:36:41;100566.31;;;8.25;100.00
48352;BME280;34163;49.314;6.752;2023-09-30T18:39:06;100574.00;;;8.35;100.00
48352;BME280;34163;49.314;6.752;2023-09-30T18:41:32;100584.38;;;8.46;100.00
48352;BME280;34163;49.314;6.752;2023-09-30T18:43:57;100586.38;;;8.33;100.00
48352;BME280;34163;49.314;6.752;2023-09-30T18:46:22;100581.22;;;8.27;100.00
48352;BME280;34163;49.314;6.752;2023-09-30T18:48:47;100575.09;;;8.27;100.00
48352;BME280;34163;49.314;6.752;2023-09-30T18:51:17;100573.34;;;8.26;100.00
48352;BME280;34163;49.314;6.752;2023-09-30T18:53:43;100572.56;;;8.21;100.00